Time;durP1;ratioP1;P1;durP2;ratioP2;P2;SDS_P1;SDS_P2;PMS_P1;PMS_P2;Temp;Humidity;BMP_temperature;BMP_pressure;BME280_temperature;BME280_humidity;BME280_pressure;Samples;Min_cycle;Max_cycle;Signal;HPM_P1;HPM_P2
2021/12/04 00:01:53;;;;;;;12.83;8.10;;;1.80;99.90;;;;;;5055017;28;20452;-78
2021/12/04 00:04:22;;;;;;;18.17;7.87;;;1.80;99.90;;;;;;5050500;28;20493;-78
2021/12/04 00:06:49;;;;;;;22.87;7.30;;;1.80;99.90;;;;;;5039134;28;20515;-78
2021/12/04 00:09:17;;;;;;;13.20;8.30;;;1.90;99.90;;;;;;5039156;28;20602;-78
2021/12/04 00:11:53;;;;;;;14.80;7.70;;;1.80;99.90;;;;;;5058409;28;20487;-78
2021/12/04 00:14:20;;;;;;;10.60;7.30;;;1.80;99.90;;;;;;5052774;28;20453;-78
2021/12/04 00:16:47;;;;;;;15.17;9.00;;;1.70;99.90;;;;;;5038765;28;20449;-78
2021/12/04 00:19:13;;;;;;;14.80;7.67;;;1.70;99.90;;;;;;5058968;28;20487;-77
2021/12/04 00:21:40;;;;;;;9.93;7.23;;;1.70;99.90;;;;;;5050585;28;20960;-78
2021/12/04 00:24:07;;;;;;;20.53;8.07;;;1.80;99.90;;;;;;5039577;28;20446;-78
2021/12/04 00:26:34;;;;;;;11.77;7.20;;;1.70;99.90;;;;;;5039397;28;20835;-78
2021/12/04 00:29:02;;;;;;;12.07;8.30;;;1.70;99.90;;;;;;5049706;28;20445;-77
2021/12/04 00:31:28;;;;;;;13.47;8.67;;;1.60;99.90;;;;;;5049732;28;20453;-77
2021/12/04 00:33:55;;;;;;;12.30;8.00;;;1.60;99.90;;;;;;5038263;28;20453;-78
2021/12/04 00:36:29;;;;;;;12.80;7.50;;;1.60;99.90;;;;;;5056956;28;20452;-78
2021/12/04 00:49:55;;;;;;;15.53;8.80;;;1.70;99.90;;;;;;5045650;28;20976;-78
2021/12/04 00:52:21;;;;;;;15.57;8.47;;;1.70;99.90;;;;;;5046434;28;20452;-78
2021/12/04 00:54:48;;;;;;;16.77;10.70;;;1.70;99.90;;;;;;5051946;28;20496;-78
2021/12/04 00:57:15;;;;;;;18.80;8.97;;;1.60;99.90;;;;;;5038259;28;20583;-77
2021/12/04 00:59:43;;;;;;;14.80;9.20;;;1.60;99.90;;;;;;5054815;28;20998;-78
2021/12/04 01:02:10;;;;;;;20.87;9.00;;;1.60;99.90;;;;;;5057417;28;20479;-78
2021/12/04 01:04:37;;;;;;;22.30;9.67;;;1.50;99.90;;;;;;5052613;28;20512;-78
2021/12/04 01:07:04;;;;;;;18.40;9.50;;;1.50;99.90;;;;;;5049835;28;20456;-77
2021/12/04 01:09:31;;;;;;;16.30;9.10;;;1.50;99.90;;;;;;5051585;28;20538;-77
2021/12/04 01:11:57;;;;;;;16.53;9.17;;;1.50;99.90;;;;;;5036429;28;20460;-77
2021/12/04 01:14:27;;;;;;;19.77;10.27;;;1.50;99.90;;;;;;5050869;28;20456;-77
2021/12/04 01:16:56;;;;;;;16.40;10.43;;;1.50;99.90;;;;;;5033336;28;20481;-77
2021/12/04 01:19:23;;;;;;;17.30;10.43;;;1.50;99.90;;;;;;5034597;28;20469;-77
2021/12/04 01:21:51;;;;;;;17.13;10.30;;;1.50;99.90;;;;;;5049747;28;20499;-77
2021/12/04 01:24:17;;;;;;;18.80;10.57;;;1.50;99.90;;;;;;5048134;28;20453;-77
2021/12/04 01:26:44;;;;;;;13.47;8.80;;;1.50;99.90;;;;;;5053951;28;20502;-76
2021/12/04 01:29:11;;;;;;;21.43;9.90;;;1.40;99.90;;;;;;5054375;28;20902;-77
2021/12/04 01:31:38;;;;;;;16.70;9.87;;;1.50;99.90;;;;;;5054105;28;20476;-77
2021/12/04 01:34:06;;;;;;;16.57;8.93;;;1.50;99.90;;;;;;5051261;28;20515;-77
2021/12/04 01:36:33;;;;;;;16.50;10.10;;;1.40;99.90;;;;;;5044898;28;20452;-77
2021/12/04 01:39:01;;;;;;;18.30;9.70;;;1.40;99.90;;;;;;5053759;28;21014;-77
2021/12/04 01:41:27;;;;;;;16.20;9.30;;;1.40;99.90;;;;;;5054043;28;20456;-77
2021/12/04 01:43:58;;;;;;;22.10;10.60;;;1.50;99.90;;;;;;5052860;28;20502;-77
2021/12/04 01:46:24;;;;;;;15.37;9.30;;;1.40;99.90;;;;;;5034777;28;20544;-77
2021/12/04 01:48:51;;;;;;;13.70;8.40;;;1.50;99.90;;;;;;5044914;28;20514;-77
2021/12/04 01:51:19;;;;;;;14.57;8.60;;;1.60;99.90;;;;;;5052488;28;21180;-77
2021/12/04 01:53:46;;;;;;;18.93;10.40;;;1.50;99.90;;;;;;5052867;28;21027;-77
2021/12/04 01:56:13;;;;;;;24.93;9.93;;;1.50;99.90;;;;;;5042339;28;20444;-77
2021/12/04 01:58:42;;;;;;;21.70;9.70;;;1.50;99.90;;;;;;5053550;28;20860;-77
2021/12/04 02:01:09;;;;;;;13.40;8.53;;;1.60;99.90;;;;;;5051195;28;20488;-78
2021/12/04 02:03:36;;;;;;;22.17;9.20;;;1.50;99.90;;;;;;5053299;28;20456;-78
2021/12/04 02:06:04;;;;;;;15.13;8.30;;;1.50;99.90;;;;;;5039979;28;20537;-76
2021/12/04 02:08:32;;;;;;;12.73;8.43;;;1.50;99.90;;;;;;5053514;28;20506;-77
2021/12/04 02:11:00;;;;;;;18.90;8.70;;;1.50;99.90;;;;;;5040237;28;20477;-77
2021/12/04 02:13:27;;;;;;;13.30;8.37;;;1.50;99.90;;;;;;5032384;28;20457;-77
2021/12/04 02:15:55;;;;;;;16.00;8.60;;;1.60;99.90;;;;;;5045455;28;20449;-77
2021/12/04 02:18:23;;;;;;;19.70;8.80;;;1.50;99.90;;;;;;5052615;28;20862;-78
2021/12/04 02:20:51;;;;;;;15.83;9.53;;;1.50;99.90;;;;;;5044321;28;20473;-77
2021/12/04 02:23:18;;;;;;;17.50;9.07;;;1.50;99.90;;;;;;5042757;28;20445;-77
2021/12/04 02:25:45;;;;;;;19.40;9.67;;;1.50;99.90;;;;;;5037915;28;20539;-77
2021/12/04 02:28:13;;;;;;;18.60;10.40;;;1.50;99.90;;;;;;5031736;28;20461;-77
2021/12/04 02:30:43;;;;;;;17.60;9.80;;;1.50;99.90;;;;;;5052345;28;20479;-77
2021/12/04 02:33:14;;;;;;;18.53;9.70;;;1.40;99.90;;;;;;5039749;28;20458;-77
2021/12/04 02:35:42;;;;;;;17.10;9.80;;;1.50;99.90;;;;;;5033345;28;20453;-77
2021/12/04 02:38:11;;;;;;;19.20;9.10;;;1.40;99.90;;;;;;5037641;28;20498;-77
2021/12/04 02:40:38;;;;;;;18.67;10.43;;;1.50;99.90;;;;;;5032267;28;20492;-77
2021/12/04 02:43:05;;;;;;;15.93;10.00;;;1.40;99.90;;;;;;5041347;28;20524;-77
2021/12/04 02:45:32;;;;;;;19.93;10.07;;;1.30;99.90;;;;;;5040194;28;20488;-77
2021/12/04 02:47:58;;;;;;;15.20;9.70;;;1.30;99.90;;;;;;5037531;28;20858;-78
2021/12/04 02:50:25;;;;;;;19.80;10.07;;;1.30;99.90;;;;;;5053491;28;20522;-78
2021/12/04 02:52:52;;;;;;;18.73;9.77;;;1.20;99.90;;;;;;5051837;28;20456;-78
2021/12/04 02:55:20;;;;;;;16.90;9.00;;;1.20;99.90;;;;;;5043690;28;20487;-78
2021/12/04 02:57:47;;;;;;;19.50;10.33;;;1.10;99.90;;;;;;5050924;28;20448;-78
2021/12/04 03:00:16;;;;;;;16.50;9.80;;;1.10;99.90;;;;;;5039619;28;20477;-77
2021/12/04 03:02:43;;;;;;;17.60;10.60;;;0.90;99.90;;;;;;5033039;28;20940;-77
2021/12/04 03:05:11;;;;;;;15.20;10.13;;;0.90;99.90;;;;;;5041678;28;20487;-78
2021/12/04 03:07:38;;;;;;;16.50;10.07;;;0.80;99.90;;;;;;5051323;28;20460;-77
2021/12/04 03:10:07;;;;;;;14.67;9.07;;;0.80;99.90;;;;;;5047416;28;20472;-78
2021/12/04 03:12:37;;;;;;;16.20;10.03;;;0.70;99.90;;;;;;5051801;28;20929;-77
2021/12/04 03:15:04;;;;;;;15.13;9.87;;;0.70;99.90;;;;;;5044732;28;20458;-77
2021/12/04 03:17:31;;;;;;;15.63;9.60;;;0.70;99.90;;;;;;5033007;28;20452;-78
2021/12/04 03:19:58;;;;;;;15.67;8.90;;;0.60;99.90;;;;;;5043875;28;20885;-78
2021/12/04 03:22:24;;;;;;;17.43;10.13;;;0.70;99.90;;;;;;5048531;28;20449;-78
2021/12/04 03:24:51;;;;;;;14.13;8.60;;;0.60;99.90;;;;;;5042489;28;20457;-78
2021/12/04 03:27:20;;;;;;;21.80;10.47;;;0.60;99.90;;;;;;5053089;28;20452;-78
2021/12/04 03:29:53;;;;;;;15.00;10.07;;;0.60;99.90;;;;;;5054024;28;21068;-78
2021/12/04 03:32:47;;;;;;;18.93;10.13;;;0.60;99.90;;;;;;5053370;28;20828;-78
2021/12/04 03:40:55;;;;;;;14.50;9.03;;;0.50;99.90;;;;;;5024951;28;20471;-77
2021/12/04 03:43:22;;;;;;;12.67;7.63;;;0.40;99.90;;;;;;5057603;28;20459;-78
2021/12/04 03:45:59;;;;;;;16.20;8.77;;;0.50;99.90;;;;;;5040861;28;20849;-78
2021/12/04 03:51:10;;;;;;;12.60;7.67;;;0.40;99.90;;;;;;5058254;28;20838;-78
2021/12/04 03:53:37;;;;;;;12.30;8.10;;;0.40;99.90;;;;;;5057681;28;20546;-78
2021/12/04 03:56:05;;;;;;;12.23;8.30;;;0.30;99.90;;;;;;5042058;28;20445;-79
2021/12/04 03:58:32;;;;;;;13.43;7.07;;;0.30;99.90;;;;;;5038105;28;20966;-78
2021/12/04 04:01:00;;;;;;;10.80;6.83;;;0.30;99.90;;;;;;5046045;28;20856;-78
2021/12/04 04:03:27;;;;;;;12.50;6.83;;;0.30;99.90;;;;;;5051509;28;20531;-78
2021/12/04 04:05:54;;;;;;;11.17;7.10;;;0.30;99.90;;;;;;5052769;28;21050;-79
2021/12/04 04:08:21;;;;;;;12.93;8.07;;;0.30;99.90;;;;;;5044437;28;20960;-78
2021/12/04 04:10:49;;;;;;;11.70;7.80;;;0.30;99.90;;;;;;5043241;28;20983;-78
2021/12/04 04:13:16;;;;;;;14.53;7.37;;;0.30;99.90;;;;;;5036576;28;20480;-78
2021/12/04 04:15:43;;;;;;;13.03;8.07;;;0.40;99.90;;;;;;5047654;28;20457;-78
2021/12/04 04:18:11;;;;;;;14.23;8.13;;;0.40;99.90;;;;;;5037872;28;20452;-78
2021/12/04 04:20:37;;;;;;;10.10;7.00;;;0.30;99.90;;;;;;5037470;28;20477;-78
2021/12/04 04:23:05;;;;;;;12.57;7.90;;;0.20;99.90;;;;;;5037431;28;20495;-78
2021/12/04 04:25:31;;;;;;;16.63;7.93;;;0.30;99.90;;;;;;5046480;28;20959;-78
2021/12/04 04:27:58;;;;;;;13.53;8.23;;;0.20;99.90;;;;;;5055851;28;20571;-78
2021/12/04 04:30:25;;;;;;;13.97;8.00;;;0.20;99.90;;;;;;5038538;28;20477;-78
2021/12/04 04:32:53;;;;;;;11.70;7.60;;;0.20;99.90;;;;;;5048863;28;20455;-79
2021/12/04 04:35:24;;;;;;;12.83;7.23;;;0.20;99.90;;;;;;5047881;28;20461;-78
2021/12/04 04:37:56;;;;;;;9.77;6.70;;;0.20;99.90;;;;;;5052864;28;20968;-78
2021/12/04 04:59:52;;;;;;;12.70;6.93;;;0.30;99.90;;;;;;5035647;28;20460;-78
2021/12/04 05:02:36;;;;;;;9.27;6.10;;;0.20;99.90;;;;;;5042274;28;20535;-78
2021/12/04 05:13:23;;;;;;;12.50;7.73;;;0.20;99.90;;;;;;5054817;28;20478;-78
2021/12/04 05:16:01;;;;;;;9.50;6.33;;;0.20;99.90;;;;;;5039645;28;20477;-77
2021/12/04 05:18:38;;;;;;;10.17;6.70;;;0.20;99.90;;;;;;5042228;28;20488;-78
2021/12/04 05:21:06;;;;;;;15.53;7.80;;;0.20;99.90;;;;;;5055445;28;20490;-78
2021/12/04 05:23:37;;;;;;;12.33;7.60;;;0.20;99.90;;;;;;5049876;28;20560;-78
2021/12/04 05:26:07;;;;;;;13.43;6.77;;;0.20;99.90;;;;;;5036350;28;20535;-78
2021/12/04 05:28:34;;;;;;;11.00;7.20;;;0.20;99.90;;;;;;5039938;28;20454;-78
2021/12/04 05:31:01;;;;;;;14.43;7.97;;;0.20;99.90;;;;;;5034067;28;20469;-78
2021/12/04 05:33:28;;;;;;;12.37;6.90;;;0.20;99.90;;;;;;5039166;28;20857;-78
2021/12/04 05:35:55;;;;;;;17.43;7.00;;;0.30;99.90;;;;;;5039655;28;20504;-78
2021/12/04 05:38:22;;;;;;;13.33;7.23;;;0.30;99.90;;;;;;5048092;28;20456;-77
2021/12/04 05:40:50;;;;;;;10.20;6.80;;;0.20;99.90;;;;;;5052089;28;20487;-77
2021/12/04 05:43:21;;;;;;;10.50;7.57;;;0.10;99.90;;;;;;5051998;28;20452;-77
2021/12/04 05:45:52;;;;;;;10.57;6.70;;;0.20;99.90;;;;;;5044225;28;20479;-77
2021/12/04 05:48:20;;;;;;;12.27;7.60;;;0.10;99.90;;;;;;5051890;28;20457;-76
2021/12/04 05:53:43;;;;;;;15.13;8.60;;;0.20;99.90;;;;;;5041477;28;20443;-77
2021/12/04 05:56:12;;;;;;;14.87;8.60;;;0.20;99.90;;;;;;5034787;28;20453;-77
2021/12/04 05:58:39;;;;;;;17.30;8.80;;;0.20;99.90;;;;;;5031884;28;20492;-77
2021/12/04 06:01:07;;;;;;;17.17;9.27;;;0.20;99.90;;;;;;5033058;28;20465;-76
2021/12/04 06:03:34;;;;;;;19.37;9.63;;;0.20;99.90;;;;;;5031275;28;20555;-77
2021/12/04 06:06:02;;;;;;;18.13;9.13;;;0.20;99.90;;;;;;5034685;28;20510;-76
2021/12/04 06:08:28;;;;;;;22.30;9.97;;;0.20;99.90;;;;;;5051619;28;20870;-77
2021/12/04 06:10:55;;;;;;;22.17;10.47;;;0.20;99.90;;;;;;5044527;28;20549;-77
2021/12/04 06:13:23;;;;;;;21.53;10.27;;;0.20;99.90;;;;;;5051171;28;20563;-76
2021/12/04 06:15:50;;;;;;;21.90;9.97;;;0.20;99.90;;;;;;5039305;28;20456;-76
2021/12/04 06:18:17;;;;;;;19.50;9.83;;;0.20;99.90;;;;;;5038152;28;20465;-76
2021/12/04 06:23:30;;;;;;;19.60;10.20;;;0.20;99.90;;;;;;5051274;28;20896;-76
2021/12/04 06:25:57;;;;;;;20.70;10.07;;;0.20;99.90;;;;;;5035029;28;20454;-76
2021/12/04 06:28:25;;;;;;;15.27;8.73;;;0.20;99.90;;;;;;5031729;28;20522;-77
2021/12/04 06:30:52;;;;;;;16.20;9.03;;;0.30;99.90;;;;;;5039664;28;20476;-77
2021/12/04 06:33:19;;;;;;;17.00;8.80;;;0.20;99.90;;;;;;5050244;28;20839;-78
2021/12/04 06:35:47;;;;;;;15.03;7.77;;;0.10;99.90;;;;;;5038682;28;20477;-77
2021/12/04 06:38:17;;;;;;;17.70;9.20;;;0.20;99.90;;;;;;5041120;28;20454;-77
2021/12/04 06:40:45;;;;;;;15.10;7.53;;;0.20;99.90;;;;;;5056769;22;20562;-69
2021/12/04 06:43:12;;;;;;;15.30;8.97;;;0.20;99.90;;;;;;5030440;28;20511;-69
2021/12/04 06:45:43;;;;;;;15.43;8.57;;;0.20;99.90;;;;;;5029783;28;20449;-69
2021/12/04 06:48:12;;;;;;;15.37;8.63;;;0.20;99.90;;;;;;5030477;28;20520;-69
2021/12/04 06:50:43;;;;;;;19.33;9.10;;;0.20;99.90;;;;;;5029983;28;20523;-68
2021/12/04 06:53:19;;;;;;;17.43;9.00;;;0.20;99.90;;;;;;5019552;28;20954;-69
2021/12/04 06:55:48;;;;;;;18.53;9.43;;;0.20;99.90;;;;;;5025347;28;20456;-69
2021/12/04 06:58:15;;;;;;;12.50;7.77;;;0.20;99.90;;;;;;5030717;28;20453;-68
2021/12/04 07:00:44;;;;;;;17.40;9.17;;;0.20;99.90;;;;;;5025467;28;20889;-70
2021/12/04 07:03:11;;;;;;;21.93;10.43;;;0.20;99.90;;;;;;5030283;28;20457;-69
2021/12/04 07:05:37;;;;;;;18.57;9.97;;;0.20;99.90;;;;;;5028581;28;20985;-69
2021/12/04 07:08:05;;;;;;;29.77;11.10;;;0.20;99.90;;;;;;5030283;28;20485;-68
2021/12/04 07:10:32;;;;;;;21.57;11.27;;;0.30;99.90;;;;;;5020015;28;20510;-69
2021/12/04 07:12:59;;;;;;;30.40;11.17;;;0.30;99.90;;;;;;5016866;28;20458;-69
2021/12/04 07:15:27;;;;;;;28.50;11.77;;;0.30;99.90;;;;;;5021745;28;20793;-69
2021/12/04 07:17:55;;;;;;;28.33;12.20;;;0.30;99.90;;;;;;5029959;28;20513;-69
2021/12/04 07:20:23;;;;;;;39.97;13.47;;;0.30;99.90;;;;;;5011516;28;20540;-69
2021/12/04 07:22:50;;;;;;;37.43;14.40;;;0.30;99.90;;;;;;5010156;28;20458;-69
2021/12/04 07:25:17;;;;;;;36.53;13.70;;;0.30;99.90;;;;;;5014070;28;20460;-69
2021/12/04 07:27:45;;;;;;;36.57;14.50;;;0.30;99.90;;;;;;5031916;28;20484;-68
2021/12/04 07:30:12;;;;;;;37.83;15.10;;;0.30;99.90;;;;;;5025324;28;20527;-68
2021/12/04 07:32:39;;;;;;;37.33;14.77;;;0.30;99.90;;;;;;5034485;28;20461;-68
2021/12/04 07:35:08;;;;;;;50.80;15.10;;;0.30;99.90;;;;;;5028693;28;20476;-68
2021/12/04 07:37:35;;;;;;;50.50;15.10;;;0.30;99.90;;;;;;5020112;28;20449;-68
2021/12/04 07:40:02;;;;;;;55.43;14.63;;;0.40;99.90;;;;;;5033211;28;20497;-68
2021/12/04 07:42:29;;;;;;;47.80;15.47;;;0.30;99.90;;;;;;5030289;28;20527;-68
2021/12/04 07:44:56;;;;;;;44.40;15.73;;;0.30;99.90;;;;;;5030509;28;20507;-68
2021/12/04 07:47:23;;;;;;;56.63;18.00;;;0.30;99.90;;;;;;5030600;28;20485;-68
2021/12/04 07:49:49;;;;;;;55.37;15.67;;;0.30;99.90;;;;;;5029941;28;21006;-68
2021/12/04 07:52:17;;;;;;;57.53;15.17;;;0.40;99.90;;;;;;5029747;28;20535;-68
2021/12/04 07:54:44;;;;;;;50.87;14.87;;;0.40;99.90;;;;;;5021705;28;20450;-68
2021/12/04 07:57:11;;;;;;;41.57;15.07;;;0.40;99.90;;;;;;5022670;28;20454;-68
2021/12/04 07:59:38;;;;;;;42.30;15.50;;;0.40;99.90;;;;;;5029925;28;20453;-68
2021/12/04 08:02:05;;;;;;;59.43;15.63;;;0.40;99.90;;;;;;5029382;28;20552;-68
2021/12/04 08:04:31;;;;;;;45.43;14.20;;;0.40;99.90;;;;;;5030105;28;20526;-68
2021/12/04 08:06:58;;;;;;;46.67;14.33;;;0.40;99.90;;;;;;5030336;28;20496;-68
2021/12/04 08:09:26;;;;;;;46.47;14.00;;;0.40;99.90;;;;;;5027711;28;20465;-69
2021/12/04 08:11:53;;;;;;;46.87;15.70;;;0.40;99.90;;;;;;5013594;28;20469;-69
2021/12/04 08:14:19;;;;;;;48.73;15.47;;;0.50;99.90;;;;;;5009809;28;20550;-69
2021/12/04 08:16:47;;;;;;;49.00;15.70;;;0.50;99.90;;;;;;5017207;28;20454;-69
2021/12/04 08:19:14;;;;;;;39.00;14.50;;;0.50;99.90;;;;;;5029263;28;20536;-69
2021/12/04 08:21:41;;;;;;;50.07;15.27;;;0.50;99.90;;;;;;5027582;28;20838;-69
2021/12/04 08:24:08;;;;;;;47.73;15.33;;;0.40;99.90;;;;;;5029259;28;20462;-69
2021/12/04 08:26:37;;;;;;;45.77;14.63;;;0.50;99.90;;;;;;5031337;28;21016;-68
2021/12/04 08:29:05;;;;;;;49.87;15.27;;;0.50;99.90;;;;;;5033573;28;20461;-68
2021/12/04 08:31:31;;;;;;;44.73;15.27;;;0.50;99.90;;;;;;5033522;28;20476;-68
2021/12/04 08:33:58;;;;;;;36.47;13.00;;;0.50;99.90;;;;;;5033476;28;20494;-68
2021/12/04 08:36:25;;;;;;;48.10;15.47;;;0.50;99.90;;;;;;5015952;28;20454;-72
2021/12/04 08:38:52;;;;;;;55.57;15.87;;;0.60;99.90;;;;;;5014602;28;20454;-73
2021/12/04 08:41:21;;;;;;;42.43;12.93;;;0.80;99.90;;;;;;5032693;28;20484;-72
2021/12/04 08:43:49;;;;;;;59.60;16.47;;;0.80;99.90;;;;;;5033942;28;20822;-73
2021/12/04 08:46:20;;;;;;;45.40;15.67;;;1.10;99.90;;;;;;5033341;28;20983;-72
2021/12/04 08:48:47;;;;;;;48.63;16.33;;;1.00;99.90;;;;;;5023612;28;20490;-72
2021/12/04 08:51:14;;;;;;;41.17;13.17;;;1.00;99.90;;;;;;5014144;28;20852;-72
2021/12/04 08:53:41;;;;;;;38.73;14.60;;;1.10;99.90;;;;;;5028642;28;20507;-70
2021/12/04 08:56:08;;;;;;;46.03;15.57;;;1.10;99.90;;;;;;5032999;28;20457;-68
2021/12/04 08:58:36;;;;;;;47.73;16.53;;;1.10;99.90;;;;;;5033212;28;20495;-69
2021/12/04 09:01:10;;;;;;;43.23;15.17;;;1.00;99.90;;;;;;5032256;28;20470;-69
2021/12/04 09:03:40;;;;;;;43.57;15.20;;;1.00;99.90;;;;;;5018440;28;20457;-69
2021/12/04 09:06:08;;;;;;;40.30;16.00;;;1.00;99.90;;;;;;5013498;28;20450;-69
2021/12/04 09:08:35;;;;;;;42.43;15.03;;;0.90;99.90;;;;;;5028029;28;21001;-69
2021/12/04 09:11:05;;;;;;;38.67;14.77;;;0.90;99.90;;;;;;5029526;28;21074;-68
2021/12/04 09:13:32;;;;;;;39.30;15.13;;;0.90;99.90;;;;;;5021807;28;20482;-69
2021/12/04 09:16:00;;;;;;;53.43;14.80;;;0.90;99.90;;;;;;5013305;28;20450;-69
2021/12/04 09:18:28;;;;;;;43.57;15.20;;;0.90;99.90;;;;;;5013121;28;20827;-68
2021/12/04 09:20:56;;;;;;;35.37;14.13;;;1.00;99.90;;;;;;5012990;28;20857;-69
2021/12/04 09:23:26;;;;;;;39.00;15.27;;;1.00;99.90;;;;;;5019675;28;20465;-69
2021/12/04 09:25:56;;;;;;;38.97;15.40;;;1.00;99.90;;;;;;5013263;28;20450;-69
2021/12/04 09:28:25;;;;;;;34.43;15.80;;;1.00;99.90;;;;;;5023116;28;20548;-68
2021/12/04 09:31:19;;;;;;;41.43;15.93;;;0.90;99.90;;;;;;5012908;28;20489;-69
2021/12/04 09:36:46;;;;;;;45.10;14.97;;;1.00;99.90;;;;;;5031866;28;20430;-71
2021/12/04 10:04:19;;;;;;;39.60;14.83;;;1.10;99.90;;;;;;5008338;28;20452;-69
2021/12/04 10:13:03;;;;;;;35.63;14.97;;;1.10;99.90;;;;;;5020159;28;21023;-70
2021/12/04 10:16:01;;;;;;;36.30;14.53;;;1.10;99.90;;;;;;5020758;28;20470;-70
2021/12/04 10:18:47;;;;;;;36.97;15.10;;;1.20;99.90;;;;;;5023197;28;20556;-70
2021/12/04 10:21:29;;;;;;;33.40;14.90;;;1.20;99.90;;;;;;5020322;28;20878;-71
2021/12/04 10:32:28;;;;;;;42.07;17.67;;;1.20;99.90;;;;;;5019928;28;20690;-70
2021/12/04 10:34:57;;;;;;;49.70;17.50;;;1.30;99.90;;;;;;5020954;28;20483;-70
2021/12/04 10:37:26;;;;;;;51.10;18.33;;;1.30;99.90;;;;;;5019210;28;20500;-68
2021/12/04 10:39:56;;;;;;;39.30;17.07;;;1.40;99.90;;;;;;5030604;28;20553;-69
2021/12/04 10:42:26;;;;;;;44.37;16.60;;;1.40;99.90;;;;;;5018787;28;20486;-68
2021/12/04 10:44:55;;;;;;;42.40;17.00;;;1.30;99.90;;;;;;5010764;28;20450;-68
2021/12/04 10:47:25;;;;;;;39.33;15.27;;;1.30;99.90;;;;;;5011178;28;20485;-69
2021/12/04 10:50:00;;;;;;;39.00;16.50;;;1.40;99.90;;;;;;5025275;28;20453;-69
2021/12/04 10:52:35;;;;;;;40.40;16.17;;;1.40;99.90;;;;;;5026637;28;20965;-69
2021/12/04 10:55:13;;;;;;;40.10;15.07;;;1.50;99.90;;;;;;5022241;28;20454;-70
2021/12/04 10:58:14;;;;;;;41.17;17.50;;;1.40;99.90;;;;;;5022420;28;20560;-70
2021/12/04 11:00:50;;;;;;;63.07;16.03;;;1.50;99.90;;;;;;5038787;28;20473;-69
2021/12/04 11:03:32;;;;;;;37.63;14.20;;;1.50;99.90;;;;;;5038130;28;20894;-70
2021/12/04 11:20:28;;;;;;;39.47;15.00;;;1.60;99.90;;;;;;5026413;28;20538;-70
2021/12/04 11:23:09;;;;;;;36.13;15.20;;;1.60;99.90;;;;;;5014679;28;20792;-68
2021/12/04 11:25:59;;;;;;;29.80;13.90;;;1.60;99.90;;;;;;5026278;28;20560;-68
2021/12/04 11:28:48;;;;;;;30.43;14.13;;;1.70;99.90;;;;;;5012653;28;20569;-68
2021/12/04 11:37:12;;;;;;;43.57;14.00;;;1.60;99.90;;;;;;4999026;28;20497;-68
2021/12/04 11:42:35;;;;;;;30.87;13.50;;;1.60;99.90;;;;;;5017902;28;20516;-68
2021/12/04 11:45:14;;;;;;;36.37;13.83;;;1.70;99.90;;;;;;5010478;28;20472;-68
2021/12/04 11:47:44;;;;;;;29.63;13.90;;;1.60;99.90;;;;;;5010529;28;21120;-70
2021/12/04 11:50:20;;;;;;;27.87;12.67;;;1.60;99.90;;;;;;5027213;28;20476;-68
2021/12/04 11:52:49;;;;;;;33.33;13.27;;;1.70;99.90;;;;;;5029395;28;20457;-68
2021/12/04 11:55:19;;;;;;;30.50;12.60;;;1.70;99.90;;;;;;5029280;28;20457;-68
2021/12/04 11:57:46;;;;;;;35.77;13.10;;;1.70;99.90;;;;;;5030021;28;20544;-69
2021/12/04 12:00:21;;;;;;;31.70;12.77;;;1.70;99.90;;;;;;5016912;28;20577;-68
2021/12/04 12:02:48;;;;;;;31.20;12.87;;;1.70;99.90;;;;;;5014432;28;20458;-69
2021/12/04 12:05:17;;;;;;;32.40;13.50;;;1.70;99.90;;;;;;5033877;28;20461;-69
2021/12/04 12:07:51;;;;;;;39.10;15.40;;;1.70;99.90;;;;;;5032973;28;20492;-68
2021/12/04 12:10:19;;;;;;;33.30;14.80;;;1.80;99.90;;;;;;5026852;28;20449;-69
2021/12/04 12:12:48;;;;;;;35.30;14.87;;;1.80;99.90;;;;;;5023529;28;20457;-68
2021/12/04 12:15:27;;;;;;;36.07;15.27;;;1.80;99.90;;;;;;5013981;28;20846;-69
2021/12/04 12:17:54;;;;;;;41.50;15.00;;;1.80;99.90;;;;;;5031201;28;20945;-69
2021/12/04 12:20:35;;;;;;;35.77;16.30;;;1.80;99.90;;;;;;5032804;28;20485;-68
2021/12/04 12:23:04;;;;;;;40.70;15.73;;;1.80;99.90;;;;;;5016121;28;20450;-69
2021/12/04 12:25:47;;;;;;;35.23;15.63;;;1.80;99.90;;;;;;5032843;28;20449;-68
2021/12/04 12:33:58;;;;;;;36.77;16.90;;;1.80;99.90;;;;;;5033055;28;20465;-68
2021/12/04 12:36:28;;;;;;;34.87;15.03;;;1.80;99.90;;;;;;5026035;28;20454;-69
2021/12/04 12:38:58;;;;;;;41.53;15.50;;;1.90;99.90;;;;;;5031591;28;20445;-69
2021/12/04 12:41:28;;;;;;;37.10;15.43;;;1.90;99.90;;;;;;5057071;22;20505;-80
2021/12/04 12:44:12;;;;;;;52.17;16.97;;;1.90;99.90;;;;;;5035777;28;20457;-80
2021/12/04 12:46:43;;;;;;;38.27;16.43;;;2.00;99.90;;;;;;5035293;28;20462;-79
2021/12/04 12:49:25;;;;;;;45.23;16.30;;;2.00;99.90;;;;;;5033322;28;20596;-78
2021/12/04 12:51:58;;;;;;;40.77;15.77;;;2.00;99.90;;;;;;5034379;28;20469;-78
2021/12/04 12:54:31;;;;;;;41.67;16.23;;;2.00;99.90;;;;;;5035263;28;20445;-79
2021/12/04 12:57:01;;;;;;;41.07;15.97;;;2.00;99.90;;;;;;5034904;28;20457;-79
2021/12/04 13:13:25;;;;;;;23.02;10.32;;;2.20;99.90;;;;;;5033123;28;20366;-78
2021/12/04 13:15:54;;;;;;;24.20;11.20;;;2.30;99.90;;;;;;5026448;28;20210;-78
2021/12/04 13:18:23;;;;;;;24.93;11.30;;;2.30;99.90;;;;;;5014887;28;20461;-78
2021/12/04 13:20:51;;;;;;;25.47;11.30;;;2.20;99.90;;;;;;5013922;28;20540;-78
2021/12/04 13:23:22;;;;;;;26.93;12.13;;;2.30;99.90;;;;;;5016406;28;20943;-79
2021/12/04 13:25:54;;;;;;;31.00;11.73;;;2.30;99.90;;;;;;5025772;28;20548;-79
2021/12/04 13:28:23;;;;;;;27.83;11.10;;;2.30;99.90;;;;;;5034605;28;20488;-78
2021/12/04 13:30:50;;;;;;;24.00;11.70;;;2.30;99.90;;;;;;5033429;28;20477;-78
2021/12/04 13:33:17;;;;;;;25.13;11.57;;;2.30;99.90;;;;;;5032771;28;20453;-76
2021/12/04 13:35:46;;;;;;;23.63;10.90;;;2.40;99.90;;;;;;5031457;28;20453;-78
2021/12/04 13:38:16;;;;;;;22.43;11.27;;;2.40;99.90;;;;;;5031970;28;20457;-79
2021/12/04 13:40:48;;;;;;;22.87;10.80;;;2.40;99.90;;;;;;5033236;28;20469;-77
2021/12/04 13:43:15;;;;;;;25.73;11.40;;;2.40;99.90;;;;;;5031920;28;20548;-78
2021/12/04 13:45:43;;;;;;;23.07;10.63;;;2.30;99.90;;;;;;5012927;28;20954;-78
2021/12/04 13:48:10;;;;;;;26.97;11.93;;;2.30;99.90;;;;;;5022071;28;20492;-77
2021/12/04 13:50:45;;;;;;;26.83;12.00;;;2.40;99.90;;;;;;5032303;28;20433;-71
2021/12/04 13:53:21;;;;;;;30.90;11.10;;;2.40;99.90;;;;;;5034942;28;20452;-77
2021/12/04 13:55:51;;;;;;;23.50;11.27;;;2.40;99.90;;;;;;5016399;28;20463;-77
2021/12/04 13:58:19;;;;;;;34.30;11.57;;;2.40;99.90;;;;;;5033651;28;20445;-78
2021/12/04 14:00:46;;;;;;;25.47;11.30;;;2.40;99.90;;;;;;5033705;28;20473;-78
2021/12/04 14:03:13;;;;;;;24.93;12.63;;;2.50;99.90;;;;;;5031848;28;20457;-77
2021/12/04 14:05:40;;;;;;;27.13;13.47;;;2.50;99.90;;;;;;5033057;28;20457;-78
2021/12/04 14:08:10;;;;;;;25.70;13.60;;;2.50;99.90;;;;;;5026462;28;20565;-77
2021/12/04 14:10:41;;;;;;;24.50;12.47;;;2.50;99.90;;;;;;5025005;28;20453;-78
2021/12/04 14:13:09;;;;;;;19.77;10.70;;;2.60;99.90;;;;;;5032772;28;20460;-77
2021/12/04 14:15:37;;;;;;;19.73;10.20;;;2.60;99.90;;;;;;5016200;28;20457;-78
2021/12/04 14:18:06;;;;;;;18.83;10.10;;;2.70;99.90;;;;;;5032707;28;20457;-77
2021/12/04 14:20:34;;;;;;;19.90;9.13;;;2.60;99.90;;;;;;5033909;28;20464;-79
2021/12/04 14:23:02;;;;;;;19.83;8.70;;;2.60;99.90;;;;;;5033326;28;20461;-77
2021/12/04 14:25:30;;;;;;;15.67;8.30;;;2.60;99.90;;;;;;5032950;28;20453;-79
2021/12/04 14:28:00;;;;;;;18.67;8.53;;;2.60;99.90;;;;;;5034254;28;20445;-80
2021/12/04 14:30:32;;;;;;;18.97;8.50;;;2.60;99.90;;;;;;5033293;28;20866;-78
2021/12/04 14:33:00;;;;;;;20.23;8.50;;;2.50;99.90;;;;;;5032640;28;20457;-78
2021/12/04 14:35:31;;;;;;;26.63;13.20;;;2.50;99.90;;;;;;5019459;28;20458;-79
2021/12/04 14:37:59;;;;;;;22.03;8.90;;;2.40;99.90;;;;;;5012505;28;20512;-78
2021/12/04 14:40:32;;;;;;;17.93;9.23;;;2.40;99.90;;;;;;5014103;28;20509;-79
2021/12/04 14:43:01;;;;;;;24.20;10.60;;;2.50;99.90;;;;;;5031960;28;20445;-78
2021/12/04 14:45:30;;;;;;;20.47;10.80;;;2.50;99.90;;;;;;5031854;28;20446;-77
2021/12/04 14:48:03;;;;;;;23.27;12.50;;;2.50;99.90;;;;;;5031909;28;20453;-78
2021/12/04 14:50:30;;;;;;;17.67;8.13;;;2.60;99.90;;;;;;5031645;28;20441;-78
2021/12/04 14:53:02;;;;;;;19.53;9.57;;;2.70;99.90;;;;;;5032423;28;20555;-76
2021/12/04 14:55:32;;;;;;;15.43;8.10;;;2.60;99.90;;;;;;5030349;28;20456;-76
2021/12/04 14:58:01;;;;;;;14.80;8.10;;;2.60;99.90;;;;;;5030273;28;20454;-76
2021/12/04 15:00:30;;;;;;;21.03;9.60;;;2.60;99.90;;;;;;5030592;28;20441;-76
2021/12/04 15:02:59;;;;;;;18.00;9.37;;;2.50;99.90;;;;;;5029612;28;20457;-75
2021/12/04 15:05:32;;;;;;;39.63;9.67;;;2.50;99.90;;;;;;5025764;28;20795;-75
2021/12/04 15:08:04;;;;;;;55.90;11.43;;;2.50;99.90;;;;;;5030008;28;20493;-75
2021/12/04 15:10:31;;;;;;;19.20;10.00;;;2.50;99.90;;;;;;5020302;28;20461;-75